sensor_id;sensor_type;location;lat;lon;timestamp;P1;durP1;ratioP1;P2;durP2;ratioP2
65275;SDS011;51875;49.994;14.052;2023-06-14T00:01:01;9.25;;;5.30;;
65275;SDS011;51875;49.994;14.052;2023-06-14T00:02:32;6.25;;;5.40;;
65275;SDS011;51875;49.994;14.052;2023-06-14T00:03:48;6.50;;;4.88;;
65275;SDS011;51875;49.994;14.052;2023-06-14T00:05:04;6.25;;;5.15;;
65275;SDS011;51875;49.994;14.052;2023-06-14T00:06:20;7.55;;;5.10;;
65275;SDS011;51875;49.994;14.052;2023-06-14T00:07:37;5.80;;;4.65;;
65275;SDS011;51875;49.994;14.052;2023-06-14T00:08:57;8.13;;;4.68;;
65275;SDS011;51875;49.994;14.052;2023-06-14T00:10:13;7.35;;;4.93;;
65275;SDS011;51875;49.994;14.052;2023-06-14T00:11:30;7.03;;;4.78;;
65275;SDS011;51875;49.994;14.052;2023-06-14T00:12:46;6.63;;;5.00;;
65275;SDS011;51875;49.994;14.052;2023-06-14T00:14:01;6.60;;;5.22;;
65275;SDS011;51875;49.994;14.052;2023-06-14T00:15:19;6.10;;;4.72;;
65275;SDS011;51875;49.994;14.052;2023-06-14T00:16:34;8.80;;;5.43;;
65275;SDS011;51875;49.994;14.052;2023-06-14T00:17:50;7.57;;;5.57;;
65275;SDS011;51875;49.994;14.052;2023-06-14T00:19:06;5.95;;;4.85;;
65275;SDS011;51875;49.994;14.052;2023-06-14T00:20:21;6.55;;;5.43;;
65275;SDS011;51875;49.994;14.052;2023-06-14T00:21:38;9.15;;;6.10;;
65275;SDS011;51875;49.994;14.052;2023-06-14T00:22:54;6.00;;;5.22;;
65275;SDS011;51875;49.994;14.052;2023-06-14T00:24:12;6.47;;;5.18;;
65275;SDS011;51875;49.994;14.052;2023-06-14T00:25:28;6.15;;;4.95;;
65275;SDS011;51875;49.994;14.052;2023-06-14T00:26:44;7.70;;;5.28;;
65275;SDS011;51875;49.994;14.052;2023-06-14T00:27:59;7.82;;;4.82;;
65275;SDS011;51875;49.994;14.052;2023-06-14T00:29:16;5.90;;;5.03;;
65275;SDS011;51875;49.994;14.052;2023-06-14T00:30:32;6.45;;;4.72;;
65275;SDS011;51875;49.994;14.052;2023-06-14T00:31:47;5.78;;;5.15;;
65275;SDS011;51875;49.994;14.052;2023-06-14T00:33:03;5.63;;;4.82;;
65275;SDS011;51875;49.994;14.052;2023-06-14T00:34:19;7.95;;;4.90;;
65275;SDS011;51875;49.994;14.052;2023-06-14T00:35:34;7.15;;;4.70;;
65275;SDS011;51875;49.994;14.052;2023-06-14T00:36:50;10.15;;;5.30;;
65275;SDS011;51875;49.994;14.052;2023-06-14T00:38:06;7.43;;;5.07;;
65275;SDS011;51875;49.994;14.052;2023-06-14T00:39:21;7.43;;;5.35;;
65275;SDS011;51875;49.994;14.052;2023-06-14T00:40:37;6.85;;;5.05;;
65275;SDS011;51875;49.994;14.052;2023-06-14T00:41:52;6.68;;;5.28;;
65275;SDS011;51875;49.994;14.052;2023-06-14T00:43:08;7.05;;;5.40;;
65275;SDS011;51875;49.994;14.052;2023-06-14T00:44:24;8.00;;;5.60;;
65275;SDS011;51875;49.994;14.052;2023-06-14T00:45:39;6.43;;;5.10;;
65275;SDS011;51875;49.994;14.052;2023-06-14T00:46:55;7.43;;;5.50;;
65275;SDS011;51875;49.994;14.052;2023-06-14T00:48:10;6.97;;;5.15;;
65275;SDS011;51875;49.994;14.052;2023-06-14T00:49:26;11.38;;;5.32;;
65275;SDS011;51875;49.994;14.052;2023-06-14T00:50:42;9.57;;;4.80;;
65275;SDS011;51875;49.994;14.052;2023-06-14T00:52:00;7.10;;;5.15;;
65275;SDS011;51875;49.994;14.052;2023-06-14T00:53:17;7.78;;;5.70;;
65275;SDS011;51875;49.994;14.052;2023-06-14T00:54:33;7.55;;;5.32;;
65275;SDS011;51875;49.994;14.052;2023-06-14T00:55:49;8.30;;;6.38;;
65275;SDS011;51875;49.994;14.052;2023-06-14T00:57:05;7.38;;;5.35;;
65275;SDS011;51875;49.994;14.052;2023-06-14T00:58:21;7.82;;;5.22;;
65275;SDS011;51875;49.994;14.052;2023-06-14T00:59:38;8.02;;;5.65;;
65275;SDS011;51875;49.994;14.052;2023-06-14T01:00:58;7.05;;;5.75;;
65275;SDS011;51875;49.994;14.052;2023-06-14T01:02:14;6.85;;;5.20;;
65275;SDS011;51875;49.994;14.052;2023-06-14T01:03:33;6.47;;;4.97;;
65275;SDS011;51875;49.994;14.052;2023-06-14T01:04:49;6.22;;;5.00;;
65275;SDS011;51875;49.994;14.052;2023-06-14T01:10:53;8.77;;;5.22;;
65275;SDS011;51875;49.994;14.052;2023-06-14T01:13:54;8.20;;;6.07;;
65275;SDS011;51875;49.994;14.052;2023-06-14T01:15:12;6.18;;;5.25;;
65275;SDS011;51875;49.994;14.052;2023-06-14T01:16:28;7.70;;;5.68;;
65275;SDS011;51875;49.994;14.052;2023-06-14T01:17:48;6.60;;;5.40;;
65275;SDS011;51875;49.994;14.052;2023-06-14T01:19:07;10.60;;;6.18;;
65275;SDS011;51875;49.994;14.052;2023-06-14T01:20:27;7.50;;;5.38;;
65275;SDS011;51875;49.994;14.052;2023-06-14T01:21:45;8.57;;;4.78;;
65275;SDS011;51875;49.994;14.052;2023-06-14T01:23:00;8.18;;;4.90;;
65275;SDS011;51875;49.994;14.052;2023-06-14T01:24:16;7.95;;;5.25;;
65275;SDS011;51875;49.994;14.052;2023-06-14T01:25:34;7.82;;;5.32;;
65275;SDS011;51875;49.994;14.052;2023-06-14T01:26:54;5.95;;;4.72;;
65275;SDS011;51875;49.994;14.052;2023-06-14T01:29:31;11.38;;;4.72;;
65275;SDS011;51875;49.994;14.052;2023-06-14T01:30:49;5.85;;;4.82;;
65275;SDS011;51875;49.994;14.052;2023-06-14T01:32:07;7.65;;;5.63;;
65275;SDS011;51875;49.994;14.052;2023-06-14T01:33:24;5.72;;;4.78;;
65275;SDS011;51875;49.994;14.052;2023-06-14T01:34:42;6.57;;;5.20;;
65275;SDS011;51875;49.994;14.052;2023-06-14T01:35:58;7.78;;;4.80;;
65275;SDS011;51875;49.994;14.052;2023-06-14T01:37:14;7.85;;;5.38;;
65275;SDS011;51875;49.994;14.052;2023-06-14T01:38:31;6.47;;;5.07;;
65275;SDS011;51875;49.994;14.052;2023-06-14T01:39:48;6.40;;;5.22;;
65275;SDS011;51875;49.994;14.052;2023-06-14T01:41:07;6.43;;;5.00;;
65275;SDS011;51875;49.994;14.052;2023-06-14T01:42:23;5.60;;;4.70;;
65275;SDS011;51875;49.994;14.052;2023-06-14T01:43:40;5.35;;;4.47;;
65275;SDS011;51875;49.994;14.052;2023-06-14T01:44:56;6.22;;;4.55;;
65275;SDS011;51875;49.994;14.052;2023-06-14T01:46:12;6.80;;;5.15;;
65275;SDS011;51875;49.994;14.052;2023-06-14T01:47:30;6.25;;;4.65;;
65275;SDS011;51875;49.994;14.052;2023-06-14T01:48:47;7.70;;;4.70;;
65275;SDS011;51875;49.994;14.052;2023-06-14T01:50:03;5.93;;;4.63;;
65275;SDS011;51875;49.994;14.052;2023-06-14T01:51:19;7.90;;;5.13;;
65275;SDS011;51875;49.994;14.052;2023-06-14T01:52:36;6.60;;;5.07;;
65275;SDS011;51875;49.994;14.052;2023-06-14T01:53:52;7.05;;;5.35;;
65275;SDS011;51875;49.994;14.052;2023-06-14T01:55:08;8.10;;;5.47;;
65275;SDS011;51875;49.994;14.052;2023-06-14T01:56:24;6.53;;;5.00;;
65275;SDS011;51875;49.994;14.052;2023-06-14T01:57:40;7.72;;;5.78;;
65275;SDS011;51875;49.994;14.052;2023-06-14T01:58:56;7.75;;;5.75;;
65275;SDS011;51875;49.994;14.052;2023-06-14T02:00:13;7.03;;;5.10;;
65275;SDS011;51875;49.994;14.052;2023-06-14T02:01:29;7.00;;;5.00;;
65275;SDS011;51875;49.994;14.052;2023-06-14T02:02:45;7.72;;;4.78;;
65275;SDS011;51875;49.994;14.052;2023-06-14T02:04:01;8.18;;;5.45;;
65275;SDS011;51875;49.994;14.052;2023-06-14T02:05:17;7.47;;;5.78;;
65275;SDS011;51875;49.994;14.052;2023-06-14T02:06:34;7.60;;;5.55;;
65275;SDS011;51875;49.994;14.052;2023-06-14T02:07:49;9.07;;;5.60;;
65275;SDS011;51875;49.994;14.052;2023-06-14T02:09:05;6.97;;;5.53;;
65275;SDS011;51875;49.994;14.052;2023-06-14T02:10:21;6.80;;;4.93;;
65275;SDS011;51875;49.994;14.052;2023-06-14T02:11:37;6.90;;;5.45;;
65275;SDS011;51875;49.994;14.052;2023-06-14T02:12:52;7.70;;;5.30;;
65275;SDS011;51875;49.994;14.052;2023-06-14T02:14:08;8.23;;;5.30;;
65275;SDS011;51875;49.994;14.052;2023-06-14T02:15:26;7.95;;;5.15;;
65275;SDS011;51875;49.994;14.052;2023-06-14T02:16:48;6.13;;;5.10;;
65275;SDS011;51875;49.994;14.052;2023-06-14T02:18:04;7.35;;;5.40;;
65275;SDS011;51875;49.994;14.052;2023-06-14T02:19:20;7.13;;;5.30;;
65275;SDS011;51875;49.994;14.052;2023-06-14T02:20:36;7.82;;;5.32;;
65275;SDS011;51875;49.994;14.052;2023-06-14T02:21:52;8.32;;;5.25;;
65275;SDS011;51875;49.994;14.052;2023-06-14T02:23:08;6.25;;;4.88;;
65275;SDS011;51875;49.994;14.052;2023-06-14T02:24:23;7.05;;;5.35;;
65275;SDS011;51875;49.994;14.052;2023-06-14T02:25:39;6.60;;;5.13;;
65275;SDS011;51875;49.994;14.052;2023-06-14T02:26:55;6.78;;;4.78;;
65275;SDS011;51875;49.994;14.052;2023-06-14T02:28:11;7.45;;;4.95;;
65275;SDS011;51875;49.994;14.052;2023-06-14T02:29:26;7.05;;;4.60;;
65275;SDS011;51875;49.994;14.052;2023-06-14T02:30:42;5.80;;;4.82;;
65275;SDS011;51875;49.994;14.052;2023-06-14T02:31:58;8.82;;;5.18;;
65275;SDS011;51875;49.994;14.052;2023-06-14T02:33:13;6.35;;;5.10;;
65275;SDS011;51875;49.994;14.052;2023-06-14T02:34:29;5.95;;;4.70;;
65275;SDS011;51875;49.994;14.052;2023-06-14T02:35:46;6.07;;;4.75;;
65275;SDS011;51875;49.994;14.052;2023-06-14T02:37:02;7.03;;;5.10;;
65275;SDS011;51875;49.994;14.052;2023-06-14T02:38:18;6.03;;;4.82;;
65275;SDS011;51875;49.994;14.052;2023-06-14T02:39:34;5.78;;;4.82;;
65275;SDS011;51875;49.994;14.052;2023-06-14T02:40:50;6.40;;;5.03;;
65275;SDS011;51875;49.994;14.052;2023-06-14T02:42:06;7.30;;;4.78;;
65275;SDS011;51875;49.994;14.052;2023-06-14T02:43:22;6.82;;;5.07;;
65275;SDS011;51875;49.994;14.052;2023-06-14T02:44:37;8.50;;;5.30;;
65275;SDS011;51875;49.994;14.052;2023-06-14T02:45:53;6.18;;;5.30;;
65275;SDS011;51875;49.994;14.052;2023-06-14T02:47:08;9.35;;;6.15;;
65275;SDS011;51875;49.994;14.052;2023-06-14T02:48:24;6.88;;;5.43;;
65275;SDS011;51875;49.994;14.052;2023-06-14T02:49:40;7.97;;;5.63;;
65275;SDS011;51875;49.994;14.052;2023-06-14T02:50:55;8.80;;;5.40;;
65275;SDS011;51875;49.994;14.052;2023-06-14T02:52:11;48.40;;;6.53;;
65275;SDS011;51875;49.994;14.052;2023-06-14T02:53:28;20.00;;;6.15;;
65275;SDS011;51875;49.994;14.052;2023-06-14T02:54:43;60.13;;;8.50;;
65275;SDS011;51875;49.994;14.052;2023-06-14T02:55:59;47.13;;;7.20;;
65275;SDS011;51875;49.994;14.052;2023-06-14T02:57:15;39.55;;;6.78;;
65275;SDS011;51875;49.994;14.052;2023-06-14T02:58:30;98.70;;;8.50;;
65275;SDS011;51875;49.994;14.052;2023-06-14T02:59:46;16.05;;;5.97;;
65275;SDS011;51875;49.994;14.052;2023-06-14T03:01:01;103.35;;;9.60;;
65275;SDS011;51875;49.994;14.052;2023-06-14T03:02:18;11.55;;;6.53;;
65275;SDS011;51875;49.994;14.052;2023-06-14T03:03:34;9.48;;;6.22;;
65275;SDS011;51875;49.994;14.052;2023-06-14T03:04:50;33.22;;;6.32;;
65275;SDS011;51875;49.994;14.052;2023-06-14T03:06:05;15.23;;;5.50;;
65275;SDS011;51875;49.994;14.052;2023-06-14T03:07:23;10.35;;;6.10;;
65275;SDS011;51875;49.994;14.052;2023-06-14T03:08:40;11.60;;;6.05;;
65275;SDS011;51875;49.994;14.052;2023-06-14T03:09:56;16.52;;;6.82;;
65275;SDS011;51875;49.994;14.052;2023-06-14T03:11:12;8.73;;;6.22;;
65275;SDS011;51875;49.994;14.052;2023-06-14T03:12:28;12.38;;;6.13;;
65275;SDS011;51875;49.994;14.052;2023-06-14T03:13:43;12.82;;;7.05;;
65275;SDS011;51875;49.994;14.052;2023-06-14T03:15:00;19.45;;;6.40;;
65275;SDS011;51875;49.994;14.052;2023-06-14T03:16:19;19.38;;;6.10;;
65275;SDS011;51875;49.994;14.052;2023-06-14T03:17:36;34.10;;;5.82;;
65275;SDS011;51875;49.994;14.052;2023-06-14T03:18:54;14.07;;;5.57;;
65275;SDS011;51875;49.994;14.052;2023-06-14T03:20:12;46.45;;;6.35;;
65275;SDS011;51875;49.994;14.052;2023-06-14T03:21:27;31.30;;;6.25;;
65275;SDS011;51875;49.994;14.052;2023-06-14T03:22:43;13.05;;;5.75;;
65275;SDS011;51875;49.994;14.052;2023-06-14T03:24:01;26.25;;;5.93;;
65275;SDS011;51875;49.994;14.052;2023-06-14T03:25:18;29.70;;;6.38;;
65275;SDS011;51875;49.994;14.052;2023-06-14T03:26:33;13.35;;;5.95;;
65275;SDS011;51875;49.994;14.052;2023-06-14T03:27:49;18.17;;;6.45;;
65275;SDS011;51875;49.994;14.052;2023-06-14T03:29:05;28.02;;;6.75;;
65275;SDS011;51875;49.994;14.052;2023-06-14T03:30:20;44.75;;;7.03;;
65275;SDS011;51875;49.994;14.052;2023-06-14T03:31:39;62.85;;;7.80;;
65275;SDS011;51875;49.994;14.052;2023-06-14T03:33:10;37.95;;;6.35;;
65275;SDS011;51875;49.994;14.052;2023-06-14T03:34:26;50.78;;;7.00;;
65275;SDS011;51875;49.994;14.052;2023-06-14T03:35:43;79.88;;;8.63;;
65275;SDS011;51875;49.994;14.052;2023-06-14T03:36:58;100.93;;;8.77;;
65275;SDS011;51875;49.994;14.052;2023-06-14T03:38:14;75.47;;;7.55;;
65275;SDS011;51875;49.994;14.052;2023-06-14T03:39:30;70.03;;;9.20;;
65275;SDS011;51875;49.994;14.052;2023-06-14T03:40:46;86.22;;;8.35;;
65275;SDS011;51875;49.994;14.052;2023-06-14T03:42:01;82.72;;;8.65;;
65275;SDS011;51875;49.994;14.052;2023-06-14T03:43:17;55.88;;;6.55;;
65275;SDS011;51875;49.994;14.052;2023-06-14T03:44:33;64.03;;;7.90;;
65275;SDS011;51875;49.994;14.052;2023-06-14T03:45:48;96.60;;;8.60;;
65275;SDS011;51875;49.994;14.052;2023-06-14T03:47:04;94.55;;;9.02;;
65275;SDS011;51875;49.994;14.052;2023-06-14T03:48:20;111.13;;;8.98;;
65275;SDS011;51875;49.994;14.052;2023-06-14T03:49:35;72.47;;;8.30;;
65275;SDS011;51875;49.994;14.052;2023-06-14T03:50:52;57.55;;;9.38;;
65275;SDS011;51875;49.994;14.052;2023-06-14T03:52:08;74.00;;;8.30;;
65275;SDS011;51875;49.994;14.052;2023-06-14T03:53:24;22.30;;;7.15;;
65275;SDS011;51875;49.994;14.052;2023-06-14T03:54:40;24.55;;;6.75;;
65275;SDS011;51875;49.994;14.052;2023-06-14T03:55:56;18.20;;;6.53;;
65275;SDS011;51875;49.994;14.052;2023-06-14T03:57:12;22.63;;;6.85;;
65275;SDS011;51875;49.994;14.052;2023-06-14T03:58:28;23.38;;;7.40;;
65275;SDS011;51875;49.994;14.052;2023-06-14T03:59:43;39.03;;;7.38;;
65275;SDS011;51875;49.994;14.052;2023-06-14T04:00:59;35.38;;;7.65;;
65275;SDS011;51875;49.994;14.052;2023-06-14T04:02:15;12.07;;;6.70;;
65275;SDS011;51875;49.994;14.052;2023-06-14T04:03:33;31.90;;;6.95;;
65275;SDS011;51875;49.994;14.052;2023-06-14T04:04:48;33.05;;;7.72;;
65275;SDS011;51875;49.994;14.052;2023-06-14T04:06:04;65.28;;;8.43;;
65275;SDS011;51875;49.994;14.052;2023-06-14T04:07:20;84.80;;;8.68;;
65275;SDS011;51875;49.994;14.052;2023-06-14T04:08:36;48.05;;;7.47;;
65275;SDS011;51875;49.994;14.052;2023-06-14T04:09:55;56.70;;;7.78;;
65275;SDS011;51875;49.994;14.052;2023-06-14T04:11:10;32.92;;;6.63;;
65275;SDS011;51875;49.994;14.052;2023-06-14T04:12:26;54.53;;;7.53;;
65275;SDS011;51875;49.994;14.052;2023-06-14T04:13:43;36.50;;;7.30;;
65275;SDS011;51875;49.994;14.052;2023-06-14T04:14:59;31.98;;;7.03;;
65275;SDS011;51875;49.994;14.052;2023-06-14T04:16:16;36.75;;;7.25;;
65275;SDS011;51875;49.994;14.052;2023-06-14T04:17:32;12.40;;;6.20;;
65275;SDS011;51875;49.994;14.052;2023-06-14T04:18:50;12.48;;;6.63;;
65275;SDS011;51875;49.994;14.052;2023-06-14T04:20:07;12.95;;;6.60;;
65275;SDS011;51875;49.994;14.052;2023-06-14T04:21:24;10.32;;;7.00;;
65275;SDS011;51875;49.994;14.052;2023-06-14T04:22:42;8.68;;;6.60;;
65275;SDS011;51875;49.994;14.052;2023-06-14T04:23:58;9.75;;;6.47;;
65275;SDS011;51875;49.994;14.052;2023-06-14T04:25:17;11.63;;;7.53;;
65275;SDS011;51875;49.994;14.052;2023-06-14T04:26:33;10.18;;;6.93;;
65275;SDS011;51875;49.994;14.052;2023-06-14T04:27:49;8.48;;;6.00;;
65275;SDS011;51875;49.994;14.052;2023-06-14T04:29:05;9.05;;;6.38;;
65275;SDS011;51875;49.994;14.052;2023-06-14T04:30:21;8.13;;;6.00;;
65275;SDS011;51875;49.994;14.052;2023-06-14T04:31:42;9.00;;;6.00;;
65275;SDS011;51875;49.994;14.052;2023-06-14T04:32:59;8.18;;;6.40;;
65275;SDS011;51875;49.994;14.052;2023-06-14T04:34:15;9.38;;;5.88;;
65275;SDS011;51875;49.994;14.052;2023-06-14T04:35:33;7.95;;;6.47;;
65275;SDS011;51875;49.994;14.052;2023-06-14T04:36:50;11.45;;;6.97;;
65275;SDS011;51875;49.994;14.052;2023-06-14T04:38:08;9.45;;;6.70;;
65275;SDS011;51875;49.994;14.052;2023-06-14T04:39:27;9.23;;;6.50;;
65275;SDS011;51875;49.994;14.052;2023-06-14T04:40:42;8.90;;;6.30;;
65275;SDS011;51875;49.994;14.052;2023-06-14T04:41:59;8.70;;;6.45;;
65275;SDS011;51875;49.994;14.052;2023-06-14T04:43:15;8.95;;;6.93;;
65275;SDS011;51875;49.994;14.052;2023-06-14T04:44:32;9.45;;;5.88;;
65275;SDS011;51875;49.994;14.052;2023-06-14T04:45:48;9.70;;;6.28;;
65275;SDS011;51875;49.994;14.052;2023-06-14T04:47:04;9.15;;;6.43;;
65275;SDS011;51875;49.994;14.052;2023-06-14T04:48:22;10.10;;;6.47;;
65275;SDS011;51875;49.994;14.052;2023-06-14T04:49:38;10.10;;;6.78;;
65275;SDS011;51875;49.994;14.052;2023-06-14T04:50:55;9.38;;;6.75;;
65275;SDS011;51875;49.994;14.052;2023-06-14T04:52:11;9.50;;;6.97;;
65275;SDS011;51875;49.994;14.052;2023-06-14T04:53:28;12.07;;;7.43;;
65275;SDS011;51875;49.994;14.052;2023-06-14T04:54:44;10.52;;;6.78;;
65275;SDS011;51875;49.994;14.052;2023-06-14T04:55:59;10.10;;;7.03;;
65275;SDS011;51875;49.994;14.052;2023-06-14T04:57:17;13.15;;;7.30;;
65275;SDS011;51875;49.994;14.052;2023-06-14T04:58:34;10.63;;;7.25;;
65275;SDS011;51875;49.994;14.052;2023-06-14T04:59:51;12.88;;;7.65;;
65275;SDS011;51875;49.994;14.052;2023-06-14T05:01:10;9.68;;;7.63;;
65275;SDS011;51875;49.994;14.052;2023-06-14T05:02:26;16.30;;;8.65;;
65275;SDS011;51875;49.994;14.052;2023-06-14T05:03:42;11.20;;;7.78;;
65275;SDS011;51875;49.994;14.052;2023-06-14T05:05:00;11.90;;;7.80;;
65275;SDS011;51875;49.994;14.052;2023-06-14T05:06:16;12.18;;;8.38;;
65275;SDS011;51875;49.994;14.052;2023-06-14T05:07:32;11.75;;;8.85;;
65275;SDS011;51875;49.994;14.052;2023-06-14T05:08:49;13.60;;;8.00;;
65275;SDS011;51875;49.994;14.052;2023-06-14T05:10:05;11.02;;;8.43;;
65275;SDS011;51875;49.994;14.052;2023-06-14T05:11:21;12.57;;;8.38;;
65275;SDS011;51875;49.994;14.052;2023-06-14T05:12:39;11.10;;;8.02;;
65275;SDS011;51875;49.994;14.052;2023-06-14T05:13:54;11.25;;;8.65;;
65275;SDS011;51875;49.994;14.052;2023-06-14T05:15:10;11.20;;;8.30;;
65275;SDS011;51875;49.994;14.052;2023-06-14T05:16:26;9.90;;;7.78;;
65275;SDS011;51875;49.994;14.052;2023-06-14T05:17:42;10.18;;;7.97;;
65275;SDS011;51875;49.994;14.052;2023-06-14T05:18:58;12.77;;;8.02;;
65275;SDS011;51875;49.994;14.052;2023-06-14T05:20:14;14.55;;;7.18;;
65275;SDS011;51875;49.994;14.052;2023-06-14T05:21:30;9.88;;;7.63;;
65275;SDS011;51875;49.994;14.052;2023-06-14T05:22:48;10.23;;;7.57;;
65275;SDS011;51875;49.994;14.052;2023-06-14T05:24:07;11.25;;;7.43;;
65275;SDS011;51875;49.994;14.052;2023-06-14T05:25:24;11.98;;;8.18;;
65275;SDS011;51875;49.994;14.052;2023-06-14T05:26:39;11.45;;;7.40;;
65275;SDS011;51875;49.994;14.052;2023-06-14T05:27:56;10.63;;;7.45;;
65275;SDS011;51875;49.994;14.052;2023-06-14T05:29:12;10.73;;;7.20;;
65275;SDS011;51875;49.994;14.052;2023-06-14T05:30:27;10.40;;;7.57;;
65275;SDS011;51875;49.994;14.052;2023-06-14T05:31:45;11.38;;;7.68;;
65275;SDS011;51875;49.994;14.052;2023-06-14T05:33:01;9.32;;;7.20;;
65275;SDS011;51875;49.994;14.052;2023-06-14T05:34:16;12.15;;;7.13;;
65275;SDS011;51875;49.994;14.052;2023-06-14T05:35:32;11.38;;;7.18;;
65275;SDS011;51875;49.994;14.052;2023-06-14T05:36:53;9.55;;;7.40;;
65275;SDS011;51875;49.994;14.052;2023-06-14T05:38:10;10.73;;;6.97;;
65275;SDS011;51875;49.994;14.052;2023-06-14T05:39:26;14.90;;;7.88;;
65275;SDS011;51875;49.994;14.052;2023-06-14T05:40:41;9.88;;;7.72;;
65275;SDS011;51875;49.994;14.052;2023-06-14T05:41:57;10.57;;;7.38;;
65275;SDS011;51875;49.994;14.052;2023-06-14T05:43:13;10.40;;;6.53;;
65275;SDS011;51875;49.994;14.052;2023-06-14T05:44:28;8.45;;;6.68;;
65275;SDS011;51875;49.994;14.052;2023-06-14T05:45:44;9.38;;;6.57;;
65275;SDS011;51875;49.994;14.052;2023-06-14T05:46:59;9.60;;;6.93;;
65275;SDS011;51875;49.994;14.052;2023-06-14T05:48:15;12.52;;;6.38;;
65275;SDS011;51875;49.994;14.052;2023-06-14T05:49:30;8.88;;;6.70;;
65275;SDS011;51875;49.994;14.052;2023-06-14T05:50:46;10.30;;;6.85;;
65275;SDS011;51875;49.994;14.052;2023-06-14T05:52:02;9.50;;;7.07;;
65275;SDS011;51875;49.994;14.052;2023-06-14T05:53:17;13.10;;;6.85;;
65275;SDS011;51875;49.994;14.052;2023-06-14T05:54:33;8.43;;;6.35;;
65275;SDS011;51875;49.994;14.052;2023-06-14T05:55:49;11.10;;;6.55;;
65275;SDS011;51875;49.994;14.052;2023-06-14T05:57:08;9.75;;;6.30;;
65275;SDS011;51875;49.994;14.052;2023-06-14T05:58:24;6.63;;;5.70;;
65275;SDS011;51875;49.994;14.052;2023-06-14T05:59:39;9.95;;;6.03;;
65275;SDS011;51875;49.994;14.052;2023-06-14T06:00:55;7.18;;;5.28;;
65275;SDS011;51875;49.994;14.052;2023-06-14T06:02:10;9.30;;;5.88;;
65275;SDS011;51875;49.994;14.052;2023-06-14T06:03:26;7.80;;;5.90;;
65275;SDS011;51875;49.994;14.052;2023-06-14T06:04:44;9.43;;;5.88;;
65275;SDS011;51875;49.994;14.052;2023-06-14T06:06:00;8.13;;;6.03;;
65275;SDS011;51875;49.994;14.052;2023-06-14T06:07:16;8.38;;;5.75;;
65275;SDS011;51875;49.994;14.052;2023-06-14T06:08:31;9.45;;;5.57;;
65275;SDS011;51875;49.994;14.052;2023-06-14T06:09:48;11.15;;;7.07;;
65275;SDS011;51875;49.994;14.052;2023-06-14T06:11:04;9.65;;;7.10;;
65275;SDS011;51875;49.994;14.052;2023-06-14T06:12:19;8.27;;;6.10;;
65275;SDS011;51875;49.994;14.052;2023-06-14T06:13:35;6.80;;;5.78;;
65275;SDS011;51875;49.994;14.052;2023-06-14T06:14:51;7.53;;;5.90;;
65275;SDS011;51875;49.994;14.052;2023-06-14T06:16:06;7.45;;;5.68;;
65275;SDS011;51875;49.994;14.052;2023-06-14T06:17:22;8.30;;;5.93;;
65275;SDS011;51875;49.994;14.052;2023-06-14T06:18:37;9.55;;;5.80;;
65275;SDS011;51875;49.994;14.052;2023-06-14T06:19:53;5.85;;;5.25;;
65275;SDS011;51875;49.994;14.052;2023-06-14T06:21:09;7.50;;;5.03;;
65275;SDS011;51875;49.994;14.052;2023-06-14T06:22:25;8.48;;;5.18;;
65275;SDS011;51875;49.994;14.052;2023-06-14T06:23:40;6.85;;;4.65;;
65275;SDS011;51875;49.994;14.052;2023-06-14T06:24:56;6.97;;;4.63;;
65275;SDS011;51875;49.994;14.052;2023-06-14T06:26:11;6.63;;;4.90;;
65275;SDS011;51875;49.994;14.052;2023-06-14T06:27:27;7.50;;;4.80;;
65275;SDS011;51875;49.994;14.052;2023-06-14T06:28:42;5.97;;;4.90;;
65275;SDS011;51875;49.994;14.052;2023-06-14T06:29:58;7.50;;;4.85;;
65275;SDS011;51875;49.994;14.052;2023-06-14T06:31:13;7.38;;;4.90;;
65275;SDS011;51875;49.994;14.052;2023-06-14T06:32:30;6.38;;;4.93;;
65275;SDS011;51875;49.994;14.052;2023-06-14T06:33:46;7.20;;;4.70;;
65275;SDS011;51875;49.994;14.052;2023-06-14T06:35:01;5.95;;;4.50;;
65275;SDS011;51875;49.994;14.052;2023-06-14T06:36:17;6.20;;;4.50;;
65275;SDS011;51875;49.994;14.052;2023-06-14T06:37:32;6.38;;;4.72;;
65275;SDS011;51875;49.994;14.052;2023-06-14T06:38:48;6.88;;;4.65;;
65275;SDS011;51875;49.994;14.052;2023-06-14T06:40:04;6.18;;;4.50;;
65275;SDS011;51875;49.994;14.052;2023-06-14T06:41:20;5.80;;;4.53;;
65275;SDS011;51875;49.994;14.052;2023-06-14T06:42:36;6.75;;;4.45;;
65275;SDS011;51875;49.994;14.052;2023-06-14T06:43:52;5.97;;;4.38;;
65275;SDS011;51875;49.994;14.052;2023-06-14T06:45:07;7.50;;;4.13;;
65275;SDS011;51875;49.994;14.052;2023-06-14T06:46:23;5.75;;;4.00;;
65275;SDS011;51875;49.994;14.052;2023-06-14T06:47:39;8.38;;;4.40;;
65275;SDS011;51875;49.994;14.052;2023-06-14T06:48:54;5.30;;;4.30;;
65275;SDS011;51875;49.994;14.052;2023-06-14T06:50:10;7.13;;;4.20;;
65275;SDS011;51875;49.994;14.052;2023-06-14T06:51:26;7.05;;;4.07;;
65275;SDS011;51875;49.994;14.052;2023-06-14T06:52:41;6.88;;;4.28;;
65275;SDS011;51875;49.994;14.052;2023-06-14T06:53:58;5.53;;;4.03;;
65275;SDS011;51875;49.994;14.052;2023-06-14T06:55:14;5.60;;;4.10;;
65275;SDS011;51875;49.994;14.052;2023-06-14T06:56:29;4.88;;;4.22;;
65275;SDS011;51875;49.994;14.052;2023-06-14T06:57:46;5.75;;;4.00;;
65275;SDS011;51875;49.994;14.052;2023-06-14T06:59:02;5.20;;;4.10;;
65275;SDS011;51875;49.994;14.052;2023-06-14T07:00:18;5.78;;;3.92;;
65275;SDS011;51875;49.994;14.052;2023-06-14T07:01:35;7.95;;;4.40;;
65275;SDS011;51875;49.994;14.052;2023-06-14T07:02:51;5.60;;;3.90;;
65275;SDS011;51875;49.994;14.052;2023-06-14T07:04:07;7.55;;;5.00;;
65275;SDS011;51875;49.994;14.052;2023-06-14T07:05:23;6.20;;;4.25;;
65275;SDS011;51875;49.994;14.052;2023-06-14T07:06:39;5.68;;;4.10;;
65275;SDS011;51875;49.994;14.052;2023-06-14T07:07:54;4.72;;;3.85;;
65275;SDS011;51875;49.994;14.052;2023-06-14T07:09:10;5.03;;;4.50;;
65275;SDS011;51875;49.994;14.052;2023-06-14T07:10:28;5.43;;;4.32;;
65275;SDS011;51875;49.994;14.052;2023-06-14T07:11:44;6.93;;;4.47;;
65275;SDS011;51875;49.994;14.052;2023-06-14T07:13:00;7.25;;;4.50;;
65275;SDS011;51875;49.994;14.052;2023-06-14T07:14:16;5.93;;;4.45;;
65275;SDS011;51875;49.994;14.052;2023-06-14T07:15:31;4.32;;;3.90;;
65275;SDS011;51875;49.994;14.052;2023-06-14T07:16:47;6.57;;;4.13;;
65275;SDS011;51875;49.994;14.052;2023-06-14T07:18:03;5.28;;;4.15;;
65275;SDS011;51875;49.994;14.052;2023-06-14T07:19:18;8.32;;;4.15;;
65275;SDS011;51875;49.994;14.052;2023-06-14T07:20:34;8.20;;;4.40;;
65275;SDS011;51875;49.994;14.052;2023-06-14T07:21:50;6.80;;;4.05;;
65275;SDS011;51875;49.994;14.052;2023-06-14T07:23:05;7.43;;;4.68;;
65275;SDS011;51875;49.994;14.052;2023-06-14T07:24:21;7.32;;;4.18;;
65275;SDS011;51875;49.994;14.052;2023-06-14T07:25:36;7.55;;;4.55;;
65275;SDS011;51875;49.994;14.052;2023-06-14T07:26:52;6.68;;;4.03;;
65275;SDS011;51875;49.994;14.052;2023-06-14T07:28:07;6.45;;;4.60;;
65275;SDS011;51875;49.994;14.052;2023-06-14T07:29:23;6.15;;;4.63;;
65275;SDS011;51875;49.994;14.052;2023-06-14T07:30:39;5.90;;;4.50;;
65275;SDS011;51875;49.994;14.052;2023-06-14T07:31:54;8.45;;;4.68;;
65275;SDS011;51875;49.994;14.052;2023-06-14T07:33:10;7.63;;;4.13;;
65275;SDS011;51875;49.994;14.052;2023-06-14T07:34:27;7.13;;;4.30;;
65275;SDS011;51875;49.994;14.052;2023-06-14T07:35:43;5.80;;;4.45;;
65275;SDS011;51875;49.994;14.052;2023-06-14T07:36:58;5.20;;;4.43;;
65275;SDS011;51875;49.994;14.052;2023-06-14T07:38:14;7.40;;;4.80;;
65275;SDS011;51875;49.994;14.052;2023-06-14T07:39:30;5.15;;;3.85;;